createdAt,value
2022-09-26T00:02:18.361Z,81.12
2022-09-26T00:05:23.952Z,81.03
2022-09-26T00:08:29.268Z,81.00
2022-09-26T00:11:35.626Z,81.16
2022-09-26T00:14:41.138Z,81.20
2022-09-26T00:17:46.593Z,81.13
2022-09-26T00:20:52.016Z,81.21
2022-09-26T00:23:58.700Z,81.27
2022-09-26T00:27:04.116Z,81.26
2022-09-26T00:30:11.651Z,81.23
2022-09-26T00:33:17.019Z,81.35
2022-09-26T00:36:29.811Z,81.32
2022-09-26T00:39:42.276Z,81.44
2022-09-26T00:42:47.827Z,81.52
2022-09-26T00:45:53.658Z,81.39
2022-09-26T00:49:15.218Z,81.49
2022-09-26T00:52:24.060Z,81.37
2022-09-26T00:55:35.168Z,81.50
2022-09-26T00:58:49.205Z,81.42
2022-09-26T01:01:56.990Z,81.50
2022-09-26T01:05:03.187Z,81.57
2022-09-26T01:08:09.014Z,81.47
2022-09-26T01:11:17.191Z,81.57
2022-09-26T01:14:23.309Z,81.62
2022-09-26T01:17:29.169Z,81.43
2022-09-26T01:20:44.463Z,81.56
2022-09-26T01:24:11.638Z,81.65
2022-09-26T01:27:44.390Z,81.58
2022-09-26T01:30:54.231Z,81.63
2022-09-26T01:34:05.951Z,81.39
2022-09-26T01:37:21.953Z,81.73
2022-09-26T01:40:31.615Z,81.84
2022-09-26T01:43:48.913Z,81.89
2022-09-26T01:46:58.476Z,81.91
2022-09-26T01:50:08.413Z,81.64
2022-09-26T01:53:20.218Z,81.66
2022-09-26T01:56:29.456Z,81.78
2022-09-26T01:59:40.384Z,81.67
2022-09-26T02:02:47.838Z,81.74
2022-09-26T02:05:57.361Z,81.57
2022-09-26T02:09:10.521Z,81.63
2022-09-26T02:12:22.584Z,81.51
2022-09-26T02:15:32.421Z,81.60
2022-09-26T02:18:42.152Z,81.77
2022-09-26T02:21:47.989Z,81.82
2022-09-26T02:24:53.825Z,81.93
2022-09-26T02:27:59.551Z,81.92
2022-09-26T02:31:08.469Z,82.11
2022-09-26T02:34:14.392Z,82.02
2022-09-26T02:37:21.997Z,81.98
2022-09-26T02:40:35.405Z,81.95
2022-09-26T02:43:56.857Z,82.08
2022-09-26T02:47:16.392Z,82.06
2022-09-26T02:50:34.565Z,82.15
2022-09-26T02:53:58.671Z,82.17
2022-09-26T02:57:22.498Z,82.13
2022-09-26T03:00:33.872Z,82.13
2022-09-26T03:03:45.505Z,82.18
2022-09-26T03:06:55.813Z,82.18
2022-09-26T03:10:04.710Z,82.19
2022-09-26T03:13:14.370Z,82.18
2022-09-26T03:16:21.204Z,82.16
2022-09-26T03:19:32.554Z,82.23
2022-09-26T03:22:38.253Z,82.00
2022-09-26T03:25:44.572Z,81.86
2022-09-26T03:28:50.325Z,82.10
2022-09-26T03:31:55.725Z,81.93
2022-09-26T03:35:01.184Z,82.07
2022-09-26T03:38:08.310Z,82.11
2022-09-26T03:41:16.927Z,82.08
2022-09-26T03:44:22.895Z,82.08
2022-09-26T03:47:28.305Z,82.13
2022-09-26T03:50:34.765Z,81.95
2022-09-26T03:53:42.057Z,82.08
2022-09-26T03:56:47.325Z,82.05
2022-09-26T03:59:52.633Z,82.12
2022-09-26T04:03:02.822Z,82.04
2022-09-26T04:06:10.290Z,81.95
2022-09-26T04:09:17.730Z,82.08
2022-09-26T04:12:23.654Z,82.17
2022-09-26T04:15:30.019Z,82.06
2022-09-26T04:18:36.398Z,82.16
2022-09-26T04:21:42.378Z,82.26
2022-09-26T04:24:47.691Z,82.29
2022-09-26T04:27:52.978Z,82.35
2022-09-26T04:31:01.509Z,82.47
2022-09-26T04:34:07.635Z,82.43
2022-09-26T04:37:13.420Z,82.37
2022-09-26T04:40:18.887Z,82.42
2022-09-26T04:43:24.389Z,82.43
2022-09-26T04:46:31.442Z,82.50
2022-09-26T04:49:36.954Z,82.41
2022-09-26T04:52:42.971Z,82.51
2022-09-26T04:55:49.313Z,82.49
2022-09-26T04:58:56.643Z,82.60
2022-09-26T05:02:02.699Z,82.57
2022-09-26T05:05:09.697Z,82.40
2022-09-26T05:08:15.657Z,82.44
2022-09-26T05:11:21.619Z,82.44
2022-09-26T05:14:27.326Z,82.58
2022-09-26T05:17:33.180Z,82.58
2022-09-26T05:20:38.514Z,82.56
2022-09-26T05:24:01.640Z,82.49
2022-09-26T05:27:08.325Z,82.75
2022-09-26T05:30:14.121Z,82.63
2022-09-26T05:33:20.303Z,82.44
2022-09-26T05:36:25.847Z,82.69
2022-09-26T05:39:48.730Z,82.74
2022-09-26T05:43:00.384Z,82.77
2022-09-26T05:46:07.878Z,82.69
2022-09-26T05:49:14.854Z,82.66
2022-09-26T05:52:22.408Z,82.69
2022-09-26T05:55:28.461Z,82.97
2022-09-26T05:58:35.454Z,82.99
2022-09-26T06:01:40.832Z,82.91
2022-09-26T06:04:46.240Z,83.00
2022-09-26T06:07:51.971Z,82.89
2022-09-26T06:11:01.409Z,83.04
2022-09-26T06:14:08.392Z,83.01
2022-09-26T06:17:13.741Z,83.24
2022-09-26T06:20:19.390Z,83.10
2022-09-26T06:23:24.773Z,83.24
2022-09-26T06:26:30.196Z,83.21
2022-09-26T06:29:35.524Z,83.35
2022-09-26T06:32:40.903Z,83.26
2022-09-26T06:35:46.200Z,83.49
2022-09-26T06:38:52.131Z,83.45
2022-09-26T06:41:57.448Z,83.36
2022-09-26T06:45:02.730Z,83.58
2022-09-26T06:48:08.148Z,83.70
2022-09-26T06:51:14.528Z,83.66
2022-09-26T06:54:19.953Z,83.78
2022-09-26T06:57:25.236Z,83.84
2022-09-26T07:00:30.736Z,83.95
2022-09-26T07:03:38.631Z,83.92
2022-09-26T07:06:47.175Z,83.92
2022-09-26T07:09:52.482Z,84.01
2022-09-26T07:13:03.272Z,83.91
2022-09-26T07:16:09.199Z,84.11
2022-09-26T07:19:16.230Z,84.21
2022-09-26T07:22:21.659Z,84.12
2022-09-26T07:25:27.025Z,84.22
2022-09-26T07:28:32.458Z,84.23
2022-09-26T07:31:38.169Z,84.32
2022-09-26T07:34:44.017Z,84.13
2022-09-26T07:37:53.817Z,84.37
2022-09-26T07:41:00.911Z,84.53
2022-09-26T07:47:52.522Z,84.48
2022-09-26T07:51:00.186Z,84.50
2022-09-26T07:54:05.809Z,84.50
2022-09-26T07:57:11.891Z,84.34
2022-09-26T08:00:21.370Z,84.40
2022-09-26T08:03:28.593Z,84.51
2022-09-26T08:06:36.784Z,84.50
2022-09-26T08:09:42.110Z,84.56
2022-09-26T08:12:48.177Z,84.62
2022-09-26T08:15:54.350Z,84.79
2022-09-26T08:18:58.875Z,84.78
2022-09-26T08:22:07.538Z,84.81
2022-09-26T08:25:13.424Z,84.93
2022-09-26T08:28:18.842Z,84.73
2022-09-26T08:31:24.191Z,84.94
2022-09-26T08:34:32.276Z,84.78
2022-09-26T08:37:37.598Z,84.77
2022-09-26T08:40:51.487Z,84.85
2022-09-26T08:44:08.310Z,84.70
2022-09-26T08:47:29.679Z,84.81
2022-09-26T08:50:46.393Z,84.81
2022-09-26T08:53:58.489Z,84.79
2022-09-26T08:57:08.557Z,84.81
2022-09-26T09:00:22.606Z,84.82
2022-09-26T09:03:33.463Z,84.89
2022-09-26T09:06:39.237Z,84.93
2022-09-26T09:09:44.646Z,84.88
2022-09-26T09:13:01.997Z,84.93
2022-09-26T09:16:20.078Z,84.81
2022-09-26T09:19:33.863Z,84.76
2022-09-26T09:22:53.563Z,84.81
2022-09-26T09:29:56.722Z,84.91
2022-09-26T09:33:05.402Z,85.09
2022-09-26T09:36:15.044Z,84.85
2022-09-26T09:39:27.570Z,84.98
2022-09-26T09:42:41.857Z,84.96
2022-09-26T09:45:51.589Z,84.96
2022-09-26T09:49:01.470Z,84.75
2022-09-26T09:52:20.479Z,84.92
2022-09-26T09:55:39.832Z,85.03
2022-09-26T09:59:03.748Z,84.76
2022-09-26T10:02:22.079Z,84.92
2022-09-26T10:05:36.828Z,84.86
2022-09-26T10:08:43.301Z,84.98
2022-09-26T10:11:52.500Z,84.91
2022-09-26T10:15:03.248Z,85.00
2022-09-26T10:18:29.550Z,84.90
2022-09-26T10:21:40.848Z,84.89
2022-09-26T10:24:48.873Z,84.92
2022-09-26T10:27:57.468Z,85.02
2022-09-26T10:31:10.557Z,84.92
2022-09-26T10:34:28.010Z,84.90
2022-09-26T10:37:33.856Z,84.91
2022-09-26T10:40:46.178Z,84.94
2022-09-26T10:43:56.492Z,85.01
2022-09-26T10:47:08.309Z,84.96
2022-09-26T10:50:16.754Z,85.06
2022-09-26T10:53:24.185Z,85.06
2022-09-26T10:56:36.741Z,85.12
2022-09-26T10:59:43.549Z,85.14
2022-09-26T11:02:52.304Z,85.12
2022-09-26T11:05:57.650Z,85.11
2022-09-26T11:09:04.750Z,84.98
2022-09-26T11:12:29.196Z,84.99
2022-09-26T11:15:34.644Z,85.16
2022-09-26T11:18:49.441Z,85.33
2022-09-26T11:22:05.755Z,85.41
2022-09-26T11:25:19.628Z,85.40
2022-09-26T11:28:31.536Z,85.48
2022-09-26T11:31:41.037Z,85.80
2022-09-26T11:34:47.283Z,85.36
2022-09-26T11:38:09.258Z,85.42
2022-09-26T11:41:40.954Z,85.22
2022-09-26T11:45:06.109Z,85.70
2022-09-26T11:48:32.936Z,85.60
2022-09-26T11:51:50.928Z,85.42
2022-09-26T11:55:11.837Z,85.55
2022-09-26T11:58:28.025Z,85.61
2022-09-26T12:01:44.178Z,85.48
2022-09-26T12:05:02.646Z,85.37
2022-09-26T12:08:20.696Z,85.35
2022-09-26T12:11:36.953Z,85.06
2022-09-26T12:14:54.202Z,84.77
2022-09-26T12:18:13.820Z,84.89
2022-09-26T12:21:32.182Z,84.65
2022-09-26T12:24:46.260Z,84.78
2022-09-26T12:28:02.124Z,84.13
2022-09-26T12:31:19.780Z,83.96
2022-09-26T12:34:45.128Z,83.53
2022-09-26T12:38:07.289Z,83.46
2022-09-26T12:41:39.483Z,83.40
2022-09-26T12:45:11.831Z,82.88
2022-09-26T12:48:38.256Z,82.82
2022-09-26T12:51:48.119Z,83.10
2022-09-26T12:55:07.734Z,82.89
2022-09-26T12:58:32.338Z,82.61
2022-09-26T13:02:00.733Z,82.24
2022-09-26T13:05:22.415Z,81.28
2022-09-26T13:08:36.878Z,81.02
2022-09-26T13:11:55.084Z,80.96
2022-09-26T13:15:17.369Z,80.90
2022-09-26T13:18:33.161Z,80.84
2022-09-26T13:21:49.789Z,81.05
2022-09-26T13:25:00.445Z,80.44
2022-09-26T13:28:11.512Z,80.35
2022-09-26T13:31:22.754Z,80.31
2022-09-26T13:34:35.930Z,80.02
2022-09-26T13:37:50.501Z,79.54
2022-09-26T13:41:05.067Z,79.22
2022-09-26T13:44:23.547Z,79.37
2022-09-26T13:47:39.981Z,79.46
2022-09-26T13:50:54.836Z,79.09
2022-09-26T13:54:10.665Z,78.74
2022-09-26T13:57:31.901Z,78.65
2022-09-26T14:00:53.501Z,78.38
2022-09-26T14:04:18.982Z,78.68
2022-09-26T14:08:05.329Z,78.87
2022-09-26T14:11:24.521Z,78.64
2022-09-26T14:14:44.317Z,78.16
2022-09-26T14:18:16.434Z,77.64
2022-09-26T14:21:35.123Z,77.90
2022-09-26T14:24:42.370Z,77.50
2022-09-26T14:27:49.430Z,77.73
2022-09-26T14:31:22.267Z,77.71
2022-09-26T14:34:30.497Z,77.69
2022-09-26T14:37:42.577Z,77.63
2022-09-26T14:40:57.823Z,77.91
2022-09-26T14:44:05.461Z,77.70
2022-09-26T14:47:17.266Z,77.78
2022-09-26T14:50:35.482Z,77.75
2022-09-26T14:53:45.229Z,77.63
2022-09-26T14:56:59.578Z,77.93
2022-09-26T15:00:35.053Z,77.75
2022-09-26T15:03:41.216Z,78.03
2022-09-26T15:06:52.058Z,78.05
2022-09-26T15:10:03.207Z,78.08
2022-09-26T15:13:24.170Z,78.03
2022-09-26T15:16:37.612Z,78.19
2022-09-26T15:19:50.329Z,78.21
2022-09-26T15:22:57.458Z,78.26
2022-09-26T15:26:03.772Z,78.33
2022-09-26T15:29:12.144Z,78.51
2022-09-26T15:32:25.865Z,78.47
2022-09-26T15:35:31.959Z,78.51
2022-09-26T15:38:35.954Z,78.46
2022-09-26T15:42:04.285Z,78.55
2022-09-26T15:45:26.279Z,78.69
2022-09-26T15:48:33.314Z,78.89
2022-09-26T15:51:40.773Z,78.87
2022-09-26T15:54:46.443Z,78.69
2022-09-26T15:57:55.941Z,78.80
2022-09-26T16:01:01.782Z,78.91
2022-09-26T16:04:14.884Z,78.84
2022-09-26T16:07:25.008Z,79.03
2022-09-26T16:10:35.640Z,78.89
2022-09-26T16:13:46.288Z,78.88
2022-09-26T16:16:51.732Z,78.89
2022-09-26T16:19:58.970Z,79.00
2022-09-26T16:23:05.872Z,79.07
2022-09-26T16:26:32.430Z,78.96
2022-09-26T16:29:39.089Z,78.99
2022-09-26T16:32:44.539Z,79.09
2022-09-26T16:35:51.633Z,78.94
2022-09-26T16:39:02.739Z,79.24
2022-09-26T16:42:17.873Z,79.18
2022-09-26T16:45:23.502Z,79.14
2022-09-26T16:48:37.604Z,79.34
2022-09-26T16:51:42.939Z,79.09
2022-09-26T16:54:48.713Z,79.11
2022-09-26T16:57:57.849Z,78.98
2022-09-26T17:01:20.632Z,79.30
2022-09-26T17:04:31.312Z,79.36
2022-09-26T17:07:36.705Z,79.43
2022-09-26T17:10:44.061Z,79.19
2022-09-26T17:13:51.697Z,79.17
2022-09-26T17:16:58.402Z,79.23
2022-09-26T17:20:05.140Z,79.56
2022-09-26T17:23:34.861Z,79.47
2022-09-26T17:26:37.723Z,79.63
2022-09-26T17:29:48.593Z,79.40
2022-09-26T17:32:55.265Z,79.48
2022-09-26T17:36:00.802Z,79.37
2022-09-26T17:39:14.049Z,79.46
2022-09-26T17:42:20.394Z,79.66
2022-09-26T17:45:30.337Z,79.53
2022-09-26T17:48:35.911Z,79.61
2022-09-26T17:51:42.867Z,79.86
2022-09-26T17:54:52.232Z,79.90
2022-09-26T17:57:58.503Z,79.77
2022-09-26T18:01:04.519Z,79.74
2022-09-26T18:04:17.933Z,79.62
2022-09-26T18:07:24.474Z,79.82
2022-09-26T18:10:33.802Z,79.64
2022-09-26T18:13:44.826Z,79.60
2022-09-26T18:16:50.257Z,79.92
2022-09-26T18:19:55.567Z,79.93
2022-09-26T18:23:01.159Z,79.77
2022-09-26T18:26:08.229Z,79.81
2022-09-26T18:29:16.908Z,79.82
2022-09-26T18:32:29.092Z,79.90
2022-09-26T18:35:34.604Z,80.13
2022-09-26T18:38:40.054Z,80.05
2022-09-26T18:41:46.237Z,80.13
2022-09-26T18:44:51.319Z,80.13
2022-09-26T18:47:57.133Z,80.40
2022-09-26T18:51:03.407Z,80.35
2022-09-26T18:54:13.423Z,80.46
2022-09-26T18:57:35.491Z,80.50
2022-09-26T19:00:41.102Z,80.42
2022-09-26T19:03:48.579Z,80.22
2022-09-26T19:07:00.885Z,80.34
2022-09-26T19:10:07.918Z,80.34
2022-09-26T19:13:13.253Z,80.30
2022-09-26T19:16:19.671Z,80.10
2022-09-26T19:19:26.188Z,80.28
2022-09-26T19:22:31.666Z,80.34
2022-09-26T19:25:36.981Z,80.47
2022-09-26T19:28:42.283Z,80.61
2022-09-26T19:31:47.743Z,80.78
2022-09-26T19:34:56.906Z,80.87
2022-09-26T19:38:03.813Z,80.75
2022-09-26T19:41:09.272Z,80.66
2022-09-26T19:44:14.823Z,80.77
2022-09-26T19:47:22.481Z,80.70
2022-09-26T19:50:29.128Z,80.75
2022-09-26T19:53:37.460Z,80.59
2022-09-26T19:56:43.235Z,80.54
2022-09-26T19:59:49.398Z,80.48
2022-09-26T20:02:54.496Z,80.50
2022-09-26T20:06:00.096Z,80.44
2022-09-26T20:09:07.521Z,80.45
2022-09-26T20:12:13.488Z,80.65
2022-09-26T20:15:21.147Z,80.62
2022-09-26T20:18:26.721Z,80.58
2022-09-26T20:21:33.625Z,80.57
2022-09-26T20:24:42.133Z,80.57
2022-09-26T20:27:47.430Z,80.56
2022-09-26T20:30:52.968Z,80.72
2022-09-26T20:34:00.186Z,80.47
2022-09-26T20:37:05.775Z,80.64
2022-09-26T20:40:18.237Z,80.45
2022-09-26T20:43:31.353Z,80.59
2022-09-26T20:46:40.556Z,80.56
2022-09-26T20:49:51.075Z,80.58
2022-09-26T20:52:56.387Z,80.59
2022-09-26T20:56:04.034Z,80.60
2022-09-26T20:59:09.386Z,80.50
2022-09-26T21:02:27.111Z,80.58
2022-09-26T21:05:32.674Z,80.52
2022-09-26T21:08:38.330Z,80.66
2022-09-26T21:11:43.982Z,80.63
2022-09-26T21:14:49.289Z,80.33
2022-09-26T21:17:56.257Z,80.54
2022-09-26T21:21:06.751Z,80.49
2022-09-26T21:24:24.150Z,80.61
2022-09-26T21:27:30.503Z,80.46
2022-09-26T21:30:36.204Z,80.48
2022-09-26T21:33:41.907Z,80.35
2022-09-26T21:36:47.800Z,80.50
2022-09-26T21:39:53.413Z,80.37
2022-09-26T21:43:01.919Z,80.63
2022-09-26T21:46:08.387Z,80.52
2022-09-26T21:49:13.776Z,80.70
2022-09-26T21:52:24.649Z,80.93
2022-09-26T21:55:33.714Z,80.87
2022-09-26T21:58:41.941Z,80.93
2022-09-26T22:01:47.332Z,80.97
2022-09-26T22:04:53.077Z,81.06
2022-09-26T22:07:59.026Z,80.85
2022-09-26T22:11:04.486Z,80.83
2022-09-26T22:14:10.032Z,80.98
2022-09-26T22:17:15.381Z,81.03
2022-09-26T22:20:20.831Z,80.94
2022-09-26T22:23:26.264Z,81.35
2022-09-26T22:26:31.630Z,81.41
2022-09-26T22:29:36.928Z,81.25
2022-09-26T22:32:42.431Z,81.19
2022-09-26T22:35:50.417Z,81.39
2022-09-26T22:38:55.889Z,81.30
2022-09-26T22:42:01.392Z,81.50
2022-09-26T22:45:07.933Z,81.46
2022-09-26T22:48:13.293Z,81.30
2022-09-26T22:51:19.512Z,81.57
2022-09-26T22:54:23.397Z,81.65
2022-09-26T22:57:29.249Z,81.53
2022-09-26T23:00:34.602Z,81.57
2022-09-26T23:03:41.974Z,81.37
2022-09-26T23:06:47.304Z,81.56
2022-09-26T23:09:52.653Z,81.63
2022-09-26T23:12:58.313Z,81.67
2022-09-26T23:16:07.904Z,81.71
2022-09-26T23:19:13.244Z,81.76
2022-09-26T23:22:18.677Z,81.50
2022-09-26T23:25:24.127Z,81.61
2022-09-26T23:28:29.778Z,81.76
2022-09-26T23:31:35.157Z,81.72
2022-09-26T23:34:40.579Z,81.70
2022-09-26T23:37:45.905Z,81.73
2022-09-26T23:40:51.299Z,81.77
2022-09-26T23:43:57.044Z,81.73
2022-09-26T23:47:04.326Z,81.70
2022-09-26T23:50:10.619Z,81.77
2022-09-26T23:53:16.908Z,81.74
2022-09-26T23:56:22.347Z,81.82
2022-09-26T23:59:27.804Z,81.61
